Ready To Fly
Club Aircraft
1963 Mooney M20C Mark 21

Mesquite Metro Airport (HQZ)

N6867U - Mooney M20C Mark 21
145 KIAS Cruise Speed
9.5 GPH Fuel Burn
575+ NM Range
IFR Certified
Garmin GTN 750 NavCom
STEC-20 Autopilot
EDM 700 Engine Monitor
Digital Tachometer
Digital OAT

Blog

Formation of the Mesquite Metro Flying Club

Formation of the Mesquite Metro Flying Club

The Mesquite Metro Flying Club was officially formed on August 2, 2016. Four founding members came together with a common goal, to affordably own a quality aircraft in partnership for travel and recreation. The club is composed of members with various degrees of flying experience, including those with commercial pilots licenses and instrument ratings. Before the club was officially formed, it star ...[Read More]

Public Club Events

  • No public club events
<< Nov 2019 >>
SMTWTFS
27 28 29 30 31 1 2
3 4 5 6 7 8 9
10 11 12 13 14 15 16
17 18 19 20 21 22 23
24 25 26 27 28 29 30

KHQZ 161750Z 19009KT 10SM SCT029 SCT095 32/23 A2988